Time;durP1;ratioP1;P1;durP2;ratioP2;P2;SDS_P1;SDS_P2;PMS_P1;PMS_P2;Temp;Humidity;BMP_temperature;BMP_pressure;BME280_temperature;BME280_humidity;BME280_pressure;Samples;Min_cycle;Max_cycle;Signal;HPM_P1;HPM_P2
2022/02/08 00:02:14;;;;;;;7.40;4.00;;;4.10;99.90;;;;;;5044902;28;20479;-73
2022/02/08 00:04:41;;;;;;;5.60;3.43;;;4.10;99.90;;;;;;5045029;28;20416;-73
2022/02/08 00:07:08;;;;;;;6.47;2.80;;;4.10;99.90;;;;;;5044073;28;20437;-73
2022/02/08 00:09:34;;;;;;;4.90;2.50;;;3.90;99.90;;;;;;5043172;28;20431;-73
2022/02/08 00:12:01;;;;;;;4.40;2.43;;;3.80;99.90;;;;;;5044651;28;20541;-72
2022/02/08 00:14:27;;;;;;;10.80;3.27;;;3.60;99.90;;;;;;5044861;28;20462;-73
2022/02/08 00:16:53;;;;;;;6.67;3.20;;;3.70;99.90;;;;;;5026748;28;20508;-72
2022/02/08 00:19:19;;;;;;;8.50;2.60;;;3.50;99.90;;;;;;5026854;28;20441;-72
2022/02/08 00:21:44;;;;;;;11.20;3.03;;;3.60;99.90;;;;;;5043243;28;20477;-72
2022/02/08 00:24:10;;;;;;;4.97;3.27;;;3.60;99.90;;;;;;5044722;28;20174;-73
2022/02/08 00:26:36;;;;;;;6.23;3.07;;;3.70;99.90;;;;;;5044635;28;20179;-73
2022/02/08 00:29:03;;;;;;;9.53;3.57;;;3.70;99.90;;;;;;5044413;28;20233;-73
2022/02/08 00:31:29;;;;;;;6.10;2.37;;;3.80;99.90;;;;;;5044353;28;20174;-73
2022/02/08 00:33:54;;;;;;;4.30;2.80;;;3.80;99.90;;;;;;5043734;28;20570;-73
2022/02/08 00:36:20;;;;;;;7.60;2.70;;;3.80;99.90;;;;;;5043284;28;20566;-73
2022/02/08 00:38:46;;;;;;;5.47;2.80;;;3.80;99.90;;;;;;5044996;28;20206;-74
2022/02/08 00:41:12;;;;;;;5.53;2.97;;;3.80;99.90;;;;;;5044348;28;20171;-73
2022/02/08 00:43:48;;;;;;;6.10;3.43;;;3.80;99.90;;;;;;5043863;28;20199;-75
2022/02/08 00:46:21;;;;;;;5.13;2.37;;;3.90;99.90;;;;;;5024880;28;20439;-74
2022/02/08 00:48:57;;;;;;;8.57;2.80;;;4.10;99.90;;;;;;5044221;28;20408;-73
2022/02/08 00:51:25;;;;;;;4.50;2.40;;;4.20;99.90;;;;;;5044000;28;20493;-73
2022/02/08 00:53:51;;;;;;;3.60;2.53;;;4.40;99.90;;;;;;5043890;28;20490;-73
2022/02/08 00:56:16;;;;;;;3.23;2.27;;;4.30;99.90;;;;;;5043842;28;20465;-73
2022/02/08 00:58:42;;;;;;;2.63;2.10;;;4.40;99.90;;;;;;5043891;28;20206;-73
2022/02/08 01:01:07;;;;;;;7.83;2.80;;;4.40;99.90;;;;;;5042427;28;20217;-73
2022/02/08 01:03:33;;;;;;;10.00;2.57;;;4.40;99.90;;;;;;5025809;28;20279;-73
2022/02/08 01:06:05;;;;;;;4.63;1.87;;;4.60;99.90;;;;;;5043661;28;20992;-72
2022/02/08 01:08:33;;;;;;;3.40;1.80;;;4.70;99.90;;;;;;5043778;28;20257;-73
2022/02/08 01:10:59;;;;;;;5.00;2.30;;;4.70;99.90;;;;;;5043441;28;20453;-73
2022/02/08 01:13:25;;;;;;;6.30;2.20;;;4.70;99.90;;;;;;5043557;28;20480;-74
2022/02/08 01:15:51;;;;;;;3.23;2.73;;;4.80;99.90;;;;;;5025625;28;20504;-73
2022/02/08 01:18:17;;;;;;;6.43;2.47;;;4.80;99.90;;;;;;5042262;28;20778;-72
2022/02/08 01:20:43;;;;;;;4.13;1.93;;;4.80;99.90;;;;;;5043602;28;20285;-72
2022/02/08 01:23:11;;;;;;;7.30;2.93;;;4.90;99.90;;;;;;5042776;28;20536;-73
2022/02/08 01:26:05;;;;;;;4.33;1.97;;;5.00;99.90;;;;;;5043684;28;20209;-74
2022/02/08 01:36:24;;;;;;;5.43;2.00;;;4.70;99.90;;;;;;5043675;28;20493;-73
2022/02/08 01:38:53;;;;;;;4.90;1.90;;;4.60;99.90;;;;;;5043459;28;20559;-72
2022/02/08 01:41:51;;;;;;;3.30;1.90;;;4.60;99.90;;;;;;5043318;28;20491;-72
2022/02/08 01:49:36;;;;;;;9.10;2.67;;;4.70;99.90;;;;;;5047903;28;20405;-73
2022/02/08 01:52:02;;;;;;;8.40;2.50;;;4.60;99.90;;;;;;5047642;28;20425;-73
2022/02/08 01:54:28;;;;;;;5.73;2.40;;;4.60;99.90;;;;;;5028480;28;20478;-73
2022/02/08 01:56:55;;;;;;;6.37;1.90;;;4.70;99.90;;;;;;5046524;28;20957;-74
2022/02/08 01:59:22;;;;;;;4.73;1.70;;;4.80;99.90;;;;;;5047201;28;20536;-73
2022/02/08 02:01:48;;;;;;;6.03;2.20;;;4.80;99.90;;;;;;5047421;28;20405;-73
2022/02/08 02:04:13;;;;;;;5.40;2.97;;;4.90;99.90;;;;;;5047549;28;20416;-73
2022/02/08 02:06:40;;;;;;;3.57;2.20;;;5.00;99.90;;;;;;5047190;28;20183;-73
2022/02/08 02:09:06;;;;;;;2.80;2.50;;;5.00;99.90;;;;;;5047398;28;20182;-74
2022/02/08 02:11:33;;;;;;;7.23;2.10;;;4.90;99.90;;;;;;5029374;28;20883;-73
2022/02/08 02:13:59;;;;;;;3.47;1.67;;;5.00;99.90;;;;;;5046861;28;20437;-72
2022/02/08 02:16:59;;;;;;;4.27;2.10;;;4.80;99.90;;;;;;5047278;28;20458;-72
2022/02/08 02:19:16;;;;;;;6.63;2.70;;;4.70;99.90;;;;;;5042850;28;20409;-74
2022/02/08 02:21:43;;;;;;;2.70;1.93;;;4.80;99.90;;;;;;5047341;28;20433;-71
2022/02/08 02:24:08;;;;;;;4.87;1.83;;;4.90;99.90;;;;;;5046829;28;20475;-74
2022/02/08 02:26:34;;;;;;;3.93;1.83;;;4.90;99.90;;;;;;5046564;28;20178;-72
2022/02/08 02:29:00;;;;;;;2.27;1.90;;;4.90;99.90;;;;;;5045657;28;20628;-72
2022/02/08 02:31:25;;;;;;;7.03;2.80;;;4.80;99.90;;;;;;5028970;28;20187;-73
2022/02/08 02:33:51;;;;;;;5.40;2.00;;;4.80;99.90;;;;;;5027891;28;20298;-73
2022/02/08 02:36:17;;;;;;;4.20;2.00;;;4.80;99.90;;;;;;5047071;28;20206;-73
2022/02/08 02:38:42;;;;;;;3.83;1.90;;;4.80;99.90;;;;;;5046790;28;20179;-73
2022/02/08 02:41:08;;;;;;;2.57;1.77;;;4.80;99.90;;;;;;5046906;28;20183;-74
2022/02/08 02:43:34;;;;;;;2.93;1.63;;;4.80;99.90;;;;;;5046705;28;20274;-72
2022/02/08 02:46:01;;;;;;;7.17;3.00;;;4.90;99.90;;;;;;5046537;28;20182;-74
2022/02/08 02:48:28;;;;;;;5.53;2.13;;;4.80;99.90;;;;;;5046163;28;20196;-73
2022/02/08 02:50:54;;;;;;;6.40;2.00;;;4.80;99.90;;;;;;5046390;28;20409;-73
2022/02/08 02:53:23;;;;;;;2.63;2.43;;;4.90;99.90;;;;;;5044646;28;20441;-72
2022/02/08 02:55:49;;;;;;;5.00;2.03;;;4.90;99.90;;;;;;5046012;28;20459;-73
2022/02/08 02:58:16;;;;;;;4.07;2.13;;;5.00;99.90;;;;;;5044995;28;20785;-73
2022/02/08 03:00:49;;;;;;;8.40;3.23;;;5.10;99.90;;;;;;5045900;28;20413;-72
2022/02/08 03:03:42;;;;;;;7.67;3.00;;;5.10;99.90;;;;;;5046211;28;20433;-72
2022/02/08 03:19:54;;;;;;;3.17;1.80;;;5.30;99.90;;;;;;5039684;28;20419;-72
2022/02/08 03:22:20;;;;;;;3.77;1.93;;;5.20;99.90;;;;;;5046063;28;20429;-72
2022/02/08 03:24:46;;;;;;;3.77;2.20;;;5.20;99.90;;;;;;5045858;28;20420;-71
2022/02/08 03:27:11;;;;;;;4.93;2.53;;;5.20;99.90;;;;;;5046165;28;20179;-73
2022/02/08 03:29:37;;;;;;;6.27;1.70;;;5.30;99.90;;;;;;5027223;28;20197;-74
2022/02/08 03:32:03;;;;;;;8.70;3.00;;;5.30;99.90;;;;;;5044343;28;20202;-71
2022/02/08 03:34:29;;;;;;;6.17;2.40;;;5.20;99.90;;;;;;5027178;28;21166;-73
2022/02/08 03:36:54;;;;;;;4.03;2.33;;;5.30;99.90;;;;;;5045810;28;20464;-74
2022/02/08 03:39:29;;;;;;;6.80;2.07;;;5.40;99.90;;;;;;5044468;28;20231;-73
2022/02/08 03:42:05;;;;;;;3.83;1.90;;;5.40;99.90;;;;;;5045443;28;20201;-74
2022/02/08 03:44:32;;;;;;;3.77;1.70;;;5.30;99.90;;;;;;5045332;28;20404;-73
2022/02/08 03:47:04;;;;;;;5.40;2.13;;;5.30;99.90;;;;;;5045173;28;20426;-73
2022/02/08 03:49:29;;;;;;;4.47;2.20;;;5.10;99.90;;;;;;5045686;28;20463;-73
2022/02/08 03:51:59;;;;;;;7.97;2.10;;;5.10;99.90;;;;;;5045251;28;20441;-74
2022/02/08 03:54:24;;;;;;;6.80;3.17;;;5.10;99.90;;;;;;5045625;28;20414;-77
2022/02/08 03:56:50;;;;;;;5.80;2.30;;;5.00;99.90;;;;;;5045134;28;21497;-73
2022/02/08 03:59:17;;;;;;;2.83;2.10;;;4.90;99.90;;;;;;5044658;28;20175;-74
2022/02/08 04:06:59;;;;;;;9.83;2.77;;;5.00;99.90;;;;;;5045175;28;20508;-73
2022/02/08 04:09:25;;;;;;;4.77;2.20;;;5.00;99.90;;;;;;5026825;28;21662;-73
2022/02/08 04:12:04;;;;;;;5.67;2.83;;;5.10;99.90;;;;;;5026505;28;20429;-72
2022/02/08 04:14:47;;;;;;;5.53;2.60;;;5.00;99.90;;;;;;5044554;28;20409;-73
2022/02/08 04:36:27;;;;;;;7.80;3.23;;;4.90;99.90;;;;;;5043999;28;21026;-74
2022/02/08 04:41:27;;;;;;;5.77;2.20;;;5.20;99.90;;;;;;5044269;28;20782;-74
2022/02/08 04:44:12;;;;;;;3.77;2.07;;;5.00;99.90;;;;;;5043632;28;20443;-73
2022/02/08 04:46:47;;;;;;;5.53;2.20;;;4.80;99.90;;;;;;5044227;28;20903;-73
2022/02/08 04:49:13;;;;;;;6.00;2.60;;;4.80;99.90;;;;;;5044273;28;20405;-73
2022/02/08 04:51:47;;;;;;;8.57;2.70;;;4.70;99.90;;;;;;5043294;28;20439;-73
2022/02/08 04:54:20;;;;;;;10.23;2.20;;;4.70;99.90;;;;;;5043171;28;20180;-73
2022/02/08 05:26:52;;;;;;;3.83;2.10;;;4.90;99.90;;;;;;5043142;28;20400;-73
2022/02/08 05:48:44;;;;;;;7.73;2.20;;;5.20;99.90;;;;;;5042433;28;20428;-73
2022/02/08 05:51:22;;;;;;;3.73;2.13;;;5.20;99.90;;;;;;5043288;28;20415;-73
2022/02/08 05:53:48;;;;;;;4.83;2.10;;;5.40;99.90;;;;;;5043173;28;20852;-75
2022/02/08 05:56:16;;;;;;;6.50;2.27;;;5.30;99.90;;;;;;5043157;28;20506;-73
2022/02/08 05:58:45;;;;;;;4.33;2.00;;;5.40;99.90;;;;;;5043147;28;20279;-73
2022/02/08 06:01:11;;;;;;;4.40;2.27;;;5.40;99.90;;;;;;5025094;28;20444;-74
2022/02/08 06:03:37;;;;;;;4.67;2.53;;;5.30;99.90;;;;;;5042655;28;20964;-73
2022/02/08 06:06:03;;;;;;;6.20;2.23;;;5.20;99.90;;;;;;5043078;28;20555;-73
2022/02/08 06:08:29;;;;;;;5.00;2.40;;;5.20;99.90;;;;;;5043202;28;20903;-71
2022/02/08 06:11:03;;;;;;;3.20;1.90;;;5.30;99.90;;;;;;5043142;28;20417;-75
2022/02/08 06:13:30;;;;;;;3.10;2.17;;;5.50;99.90;;;;;;5043270;28;20214;-73
2022/02/08 06:16:01;;;;;;;5.43;2.43;;;5.40;99.90;;;;;;5043005;28;20540;-72
2022/02/08 06:18:31;;;;;;;5.83;2.67;;;5.30;99.90;;;;;;5042320;28;20405;-73
2022/02/08 06:20:57;;;;;;;6.27;2.43;;;5.30;99.90;;;;;;5024614;28;20524;-74
2022/02/08 06:23:23;;;;;;;9.10;2.30;;;5.40;99.90;;;;;;5042495;28;20464;-73
2022/02/08 06:25:48;;;;;;;2.73;1.97;;;5.50;99.90;;;;;;5043023;28;20417;-75
2022/02/08 06:28:16;;;;;;;6.03;2.63;;;5.40;99.90;;;;;;5042798;28;20498;-73
2022/02/08 06:30:41;;;;;;;10.63;2.60;;;5.40;99.90;;;;;;5042076;28;20186;-73
2022/02/08 06:33:07;;;;;;;7.20;2.30;;;5.60;99.90;;;;;;5042814;28;20433;-72
2022/02/08 06:35:34;;;;;;;8.63;2.43;;;5.60;99.90;;;;;;5046368;28;20201;-72
2022/02/08 06:38:01;;;;;;;5.67;2.80;;;5.70;99.90;;;;;;5045972;28;20233;-72
2022/02/08 06:40:28;;;;;;;4.93;2.90;;;5.50;99.90;;;;;;5028501;28;20948;-73
2022/02/08 06:42:58;;;;;;;8.07;3.13;;;5.40;99.90;;;;;;5046069;28;20429;-73
2022/02/08 06:45:23;;;;;;;7.70;3.00;;;5.60;99.90;;;;;;5044548;28;21395;-73
2022/02/08 06:47:51;;;;;;;5.40;2.30;;;5.60;99.90;;;;;;5046513;28;20520;-73
2022/02/08 06:50:17;;;;;;;6.23;3.17;;;5.70;99.90;;;;;;5045701;28;20228;-73
2022/02/08 06:52:43;;;;;;;5.83;2.53;;;5.60;99.90;;;;;;5046081;28;21497;-74
2022/02/08 06:55:09;;;;;;;3.87;2.67;;;5.60;99.90;;;;;;5045970;28;20178;-74
2022/02/08 06:57:49;;;;;;;6.50;2.50;;;5.70;99.90;;;;;;5045801;28;20190;-74
2022/02/08 07:00:20;;;;;;;6.07;2.70;;;5.40;99.90;;;;;;5026473;28;20952;-73
2022/02/08 07:02:46;;;;;;;8.77;3.20;;;5.30;99.90;;;;;;5044699;28;20441;-73
2022/02/08 07:05:11;;;;;;;4.13;3.27;;;5.30;99.90;;;;;;5045952;28;20412;-73
2022/02/08 07:07:37;;;;;;;3.30;2.40;;;5.50;99.90;;;;;;5045727;28;20175;-74
2022/02/08 07:10:03;;;;;;;8.83;3.43;;;5.60;99.90;;;;;;5027904;28;20190;-75
2022/02/08 07:12:29;;;;;;;5.87;2.43;;;5.70;99.90;;;;;;5045590;28;20230;-73
2022/02/08 07:14:56;;;;;;;4.20;2.13;;;6.00;99.90;;;;;;5045695;28;20906;-73
2022/02/08 07:17:21;;;;;;;11.70;2.80;;;6.20;99.90;;;;;;5045237;28;20210;-73
2022/02/08 07:19:47;;;;;;;6.93;3.30;;;6.40;99.90;;;;;;5045407;28;20418;-73
2022/02/08 07:22:13;;;;;;;5.47;2.63;;;6.30;99.90;;;;;;5045670;28;20203;-72
2022/02/08 07:24:38;;;;;;;8.43;2.80;;;6.30;99.90;;;;;;5027286;28;20235;-72
2022/02/08 07:27:04;;;;;;;8.63;2.40;;;6.20;99.90;;;;;;5045641;28;20185;-72
2022/02/08 07:29:32;;;;;;;7.80;3.30;;;6.30;99.90;;;;;;5027175;28;20207;-74
2022/02/08 07:32:01;;;;;;;7.70;2.67;;;6.50;99.90;;;;;;5044686;28;20455;-74
2022/02/08 07:34:47;;;;;;;5.03;2.47;;;6.40;99.90;;;;;;5027345;28;20426;-75
2022/02/08 07:37:19;;;;;;;8.87;2.67;;;6.20;99.90;;;;;;5045604;28;21106;-73
2022/02/08 07:39:49;;;;;;;4.50;2.00;;;6.40;99.90;;;;;;5045746;28;20402;-74
2022/02/08 07:42:14;;;;;;;7.97;2.43;;;6.30;99.90;;;;;;5045138;28;20925;-73
2022/02/08 07:44:40;;;;;;;5.33;2.70;;;6.50;99.90;;;;;;5044737;28;20459;-73
2022/02/08 07:47:06;;;;;;;4.07;2.30;;;6.40;99.90;;;;;;5026575;28;20554;-74
2022/02/08 07:49:33;;;;;;;8.83;2.77;;;6.60;99.90;;;;;;5045207;28;20428;-75
2022/02/08 07:51:59;;;;;;;5.10;2.30;;;6.60;99.90;;;;;;5045192;28;20203;-73
2022/02/08 07:54:25;;;;;;;4.87;2.40;;;6.60;99.90;;;;;;5045588;28;20801;-73
2022/02/08 07:56:50;;;;;;;5.53;2.30;;;6.50;99.90;;;;;;5029386;28;20447;-74
2022/02/08 07:59:17;;;;;;;8.40;2.60;;;6.60;99.90;;;;;;5046076;28;20230;-73
2022/02/08 08:01:42;;;;;;;9.63;2.27;;;6.60;99.90;;;;;;5045318;28;20182;-72
2022/02/08 08:04:08;;;;;;;7.80;2.33;;;6.70;99.90;;;;;;5045373;28;20910;-73
2022/02/08 08:06:34;;;;;;;14.03;3.80;;;6.50;99.90;;;;;;5045051;28;20193;-73
2022/02/08 08:09:00;;;;;;;6.33;2.80;;;6.50;99.90;;;;;;5026597;28;20425;-73
2022/02/08 08:11:27;;;;;;;10.80;2.77;;;6.50;99.90;;;;;;5044700;28;20869;-73
2022/02/08 08:14:02;;;;;;;8.17;2.13;;;6.60;99.90;;;;;;5018869;28;20254;-73
2022/02/08 08:16:49;;;;;;;5.83;2.47;;;6.60;99.90;;;;;;5044603;28;20436;-74
2022/02/08 08:22:14;;;;;;;9.53;3.20;;;6.80;99.90;;;;;;5035395;28;20434;-74
2022/02/08 08:24:39;;;;;;;8.83;3.23;;;6.80;99.90;;;;;;5026930;28;20417;-72
2022/02/08 08:27:05;;;;;;;8.73;2.43;;;6.80;99.90;;;;;;5043933;28;20441;-73
2022/02/08 08:29:31;;;;;;;10.27;2.50;;;6.90;99.90;;;;;;5044245;28;20174;-72
2022/02/08 08:31:57;;;;;;;8.77;2.70;;;7.00;99.90;;;;;;5044234;28;20786;-74
2022/02/08 08:34:22;;;;;;;10.43;3.07;;;7.00;99.90;;;;;;5044422;28;20191;-73
2022/02/08 08:36:51;;;;;;;5.20;2.20;;;7.10;99.90;;;;;;5043717;28;20896;-72
2022/02/08 08:39:22;;;;;;;7.13;2.63;;;7.30;99.90;;;;;;5044209;28;20584;-74
2022/02/08 08:42:04;;;;;;;7.87;2.57;;;7.40;99.90;;;;;;5025945;28;20446;-73
2022/02/08 08:52:58;;;;;;;8.63;2.50;;;7.10;99.90;;;;;;5014417;28;20433;-75
2022/02/08 08:55:24;;;;;;;12.70;2.87;;;7.20;99.90;;;;;;5041749;28;20422;-72
2022/02/08 08:57:50;;;;;;;9.20;2.67;;;7.10;99.90;;;;;;5043742;28;20463;-73
2022/02/08 09:00:16;;;;;;;8.60;3.23;;;7.10;99.90;;;;;;5043686;28;20608;-74
2022/02/08 09:02:42;;;;;;;5.23;2.93;;;7.10;99.90;;;;;;5044011;28;20501;-74
2022/02/08 09:05:12;;;;;;;11.50;3.10;;;7.10;99.90;;;;;;5025710;28;20933;-74
2022/02/08 09:07:40;;;;;;;7.83;2.63;;;7.00;99.90;;;;;;5043782;28;20632;-74
2022/02/08 09:10:07;;;;;;;7.63;2.47;;;7.10;99.90;;;;;;5041434;28;20988;-73
2022/02/08 09:12:57;;;;;;;5.40;2.27;;;7.20;99.90;;;;;;5043694;28;20504;-73
2022/02/08 09:18:42;;;;;;;5.63;2.37;;;7.10;99.90;;;;;;5044144;28;20502;-71
2022/02/08 09:28:42;;;;;;;6.77;2.63;;;7.10;99.90;;;;;;5044305;28;20501;-73
2022/02/08 09:31:13;;;;;;;6.20;2.47;;;7.30;99.90;;;;;;5043967;28;20188;-73
2022/02/08 09:33:39;;;;;;;8.60;2.27;;;7.20;99.90;;;;;;5042388;28;20441;-72
2022/02/08 09:36:04;;;;;;;4.87;2.80;;;7.30;99.90;;;;;;5043572;28;20969;-72
2022/02/08 09:38:31;;;;;;;6.73;2.40;;;7.40;99.90;;;;;;5044178;28;20175;-74
2022/02/08 09:41:01;;;;;;;13.00;3.30;;;7.60;99.90;;;;;;5025650;28;20184;-74
2022/02/08 09:43:32;;;;;;;6.97;2.37;;;7.90;99.90;;;;;;5042511;28;20509;-74
2022/02/08 09:46:01;;;;;;;5.60;2.47;;;8.00;99.90;;;;;;5043529;28;20469;-74
2022/02/08 09:48:43;;;;;;;6.87;2.43;;;8.00;99.90;;;;;;5043094;28;20420;-74
2022/02/08 09:51:11;;;;;;;7.90;2.80;;;8.00;99.90;;;;;;5043422;28;20404;-76
2022/02/08 09:53:42;;;;;;;11.43;3.27;;;8.10;99.90;;;;;;5042194;28;20447;-75
2022/02/08 09:56:09;;;;;;;5.97;2.20;;;8.10;99.90;;;;;;5043275;28;20821;-74
2022/02/08 09:58:35;;;;;;;8.53;2.10;;;8.00;99.90;;;;;;5041875;28;20497;-73
2022/02/08 10:01:04;;;;;;;3.37;1.70;;;8.10;99.90;;;;;;5043520;28;20453;-74
2022/02/08 10:03:29;;;;;;;8.57;2.97;;;8.20;99.90;;;;;;5043092;28;20198;-75
2022/02/08 10:05:56;;;;;;;5.50;2.20;;;8.20;99.90;;;;;;5043199;28;20793;-74
2022/02/08 10:08:22;;;;;;;10.67;3.10;;;8.40;99.90;;;;;;5046009;28;20180;-75
2022/02/08 10:10:48;;;;;;;4.60;2.80;;;8.40;99.90;;;;;;5047088;28;20514;-75
2022/02/08 10:24:08;;;;;;;6.87;1.97;;;9.10;99.90;;;;;;5046868;28;20412;-73
2022/02/08 10:26:43;;;;;;;5.50;2.23;;;9.20;99.90;;;;;;5046735;28;20466;-75
2022/02/08 10:38:21;;;;;;;5.50;2.30;;;9.50;99.90;;;;;;4965094;28;20490;-76
2022/02/08 10:40:47;;;;;;;7.77;2.60;;;9.50;99.90;;;;;;5029403;28;21578;-76
2022/02/08 10:43:18;;;;;;;5.90;2.23;;;9.90;99.90;;;;;;5046119;28;20286;-77
2022/02/08 10:45:44;;;;;;;9.23;2.40;;;10.20;99.90;;;;;;5046366;28;20421;-74
2022/02/08 10:48:11;;;;;;;4.33;2.00;;;10.20;99.90;;;;;;5046637;28;21062;-75
2022/02/08 10:50:43;;;;;;;5.17;2.13;;;10.50;99.90;;;;;;5027985;28;20864;-77
2022/02/08 10:53:11;;;;;;;2.27;1.70;;;10.40;99.90;;;;;;5045431;28;20530;-71
2022/02/08 11:01:11;;;;;;;9.23;3.73;;;10.60;99.90;;;;;;5045964;28;20621;-73
2022/02/08 11:03:59;;;;;;;7.57;3.90;;;10.20;99.90;;;;;;5045786;28;20433;-75
2022/02/08 11:06:31;;;;;;;12.00;4.57;;;10.20;99.90;;;;;;5045491;28;20405;-72
2022/02/08 11:11:39;;;;;;;6.33;2.50;;;10.30;99.90;;;;;;5045733;28;20449;-73
2022/02/08 11:14:25;;;;;;;7.03;2.10;;;10.20;99.90;;;;;;5045724;28;20412;-73
2022/02/08 11:25:22;;;;;;;3.73;1.40;;;14.40;96.40;;;;;;5046218;28;20911;-74
2022/02/08 11:27:54;;;;;;;10.50;3.47;;;13.40;98.00;;;;;;5045292;28;20402;-73
2022/02/08 11:30:38;;;;;;;7.17;2.73;;;12.90;98.40;;;;;;5044784;28;20394;-73
2022/02/08 11:33:28;;;;;;;7.30;2.90;;;12.70;99.00;;;;;;5045122;28;20489;-74
2022/02/08 11:39:11;;;;;;;6.80;3.23;;;12.90;99.30;;;;;;5045251;28;20522;-75
2022/02/08 11:44:32;;;;;;;8.93;4.17;;;13.00;99.80;;;;;;5044894;28;20413;-74
2022/02/08 11:50:38;;;;;;;4.30;2.17;;;12.80;99.90;;;;;;5044319;28;20433;-73
2022/02/08 11:58:29;;;;;;;4.33;1.87;;;14.00;99.90;;;;;;5020466;28;20420;-74
2022/02/08 12:01:04;;;;;;;3.13;1.70;;;14.20;99.90;;;;;;5019821;28;20447;-74
2022/02/08 12:06:27;;;;;;;3.67;1.40;;;15.60;98.60;;;;;;5041472;28;20402;-74
2022/02/08 12:08:58;;;;;;;2.50;1.57;;;15.50;99.30;;;;;;5043037;28;21088;-73
2022/02/08 12:11:52;;;;;;;3.17;1.37;;;14.60;99.90;;;;;;5041551;28;20533;-73
2022/02/08 12:29:24;;;;;;;3.77;1.30;;;14.00;99.90;;;;;;5043443;28;20401;-75
2022/02/08 12:34:02;;;;;;;3.07;1.27;;;15.10;99.90;;;;;;5045110;28;20446;-76
2022/02/08 12:56:18;;;;;;;5.10;1.30;;;18.00;95.30;;;;;;5045386;28;20995;-76
2022/02/08 13:01:39;;;;;;;3.90;1.63;;;16.00;98.20;;;;;;5045069;28;20408;-79
2022/02/08 13:14:29;;;;;;;3.40;1.53;;;15.10;99.30;;;;;;5046829;28;20424;-78
2022/02/08 14:01:47;;;;;;;4.43;2.03;;;12.30;99.90;;;;;;5048003;28;20704;-77
2022/02/08 14:07:09;;;;;;;5.77;1.60;;;11.90;99.90;;;;;;5048071;28;20406;-71
2022/02/08 14:09:55;;;;;;;2.77;1.40;;;12.10;99.90;;;;;;5047443;28;20401;-73
2022/02/08 14:15:26;;;;;;;8.20;1.50;;;12.00;99.90;;;;;;5047636;28;20412;-73
2022/02/08 14:25:44;;;;;;;3.30;1.20;;;12.10;99.90;;;;;;5046919;28;20409;-71
2022/02/08 14:31:11;;;;;;;5.07;1.40;;;11.90;99.90;;;;;;5046898;28;20397;-77
2022/02/08 15:08:41;;;;;;;2.20;1.13;;;11.10;99.90;;;;;;5047846;28;20917;-74
2022/02/08 15:11:10;;;;;;;5.23;1.57;;;11.20;99.90;;;;;;5044732;28;20512;-79
2022/02/08 15:13:43;;;;;;;3.00;1.40;;;11.40;99.90;;;;;;5046499;28;20452;-75
2022/02/08 15:16:21;;;;;;;2.47;1.17;;;11.40;99.90;;;;;;5045974;28;20985;-73
2022/02/08 15:18:47;;;;;;;4.90;2.20;;;11.60;99.90;;;;;;5045150;28;20402;-74
2022/02/08 15:21:19;;;;;;;2.20;1.00;;;11.50;99.90;;;;;;5046750;28;20412;-74
2022/02/08 15:23:44;;;;;;;2.73;1.50;;;11.50;99.90;;;;;;5044811;28;20206;-74
2022/02/08 15:26:10;;;;;;;3.63;1.70;;;11.40;99.90;;;;;;5044218;28;20420;-72
2022/02/08 15:28:36;;;;;;;2.65;1.00;;;11.40;99.90;;;;;;5027649;28;20386;-74
2022/02/08 15:31:02;;;;;;;7.73;1.67;;;11.60;99.90;;;;;;5028539;28;20292;-72
2022/02/08 15:33:27;;;;;;;2.07;1.63;;;11.90;99.90;;;;;;5046262;28;20685;-73
2022/02/08 15:35:54;;;;;;;2.40;1.30;;;11.50;99.90;;;;;;5046753;28;20213;-72
2022/02/08 15:38:25;;;;;;;3.93;1.13;;;11.30;99.90;;;;;;5044995;28;20202;-73
2022/02/08 15:40:51;;;;;;;2.53;1.40;;;10.90;99.90;;;;;;5046672;28;20406;-73
2022/02/08 15:43:17;;;;;;;4.60;1.30;;;10.90;99.90;;;;;;5045975;28;20448;-74
2022/02/08 15:45:50;;;;;;;2.10;1.47;;;11.00;99.90;;;;;;5046338;28;20178;-73
2022/02/08 15:48:20;;;;;;;2.47;1.30;;;10.80;99.90;;;;;;5046292;28;20174;-75
2022/02/08 15:51:01;;;;;;;1.40;1.10;;;10.90;99.90;;;;;;5026817;28;20441;-72
2022/02/08 15:58:26;;;;;;;3.90;1.80;;;10.60;99.90;;;;;;5044981;28;20428;-72
2022/02/08 16:06:55;;;;;;;6.83;1.97;;;10.50;99.90;;;;;;5045341;28;20853;-74
2022/02/08 16:57:01;;;;;;;2.23;1.40;;;11.10;99.90;;;;;;5042977;28;21054;-73
2022/02/08 16:59:34;;;;;;;3.07;1.23;;;11.10;99.90;;;;;;5043927;28;20175;-74
2022/02/08 17:02:03;;;;;;;3.80;1.70;;;11.00;99.90;;;;;;5025893;28;20454;-74
2022/02/08 17:04:28;;;;;;;4.30;1.90;;;10.80;99.90;;;;;;5042792;28;20425;-71
2022/02/08 17:06:54;;;;;;;3.40;1.90;;;11.00;99.90;;;;;;5025937;28;20822;-72
2022/02/08 17:09:33;;;;;;;2.93;1.37;;;10.90;99.90;;;;;;5043942;28;20640;-72
2022/02/08 17:12:10;;;;;;;4.17;2.03;;;10.90;99.90;;;;;;5043525;28;20207;-74
2022/02/08 17:17:25;;;;;;;3.00;1.80;;;11.00;99.90;;;;;;5043891;28;21659;-75
2022/02/08 17:34:33;;;;;;;3.57;1.80;;;11.20;99.90;;;;;;5043585;28;20185;-72
2022/02/08 17:49:39;;;;;;;4.77;2.20;;;11.10;99.90;;;;;;5043479;28;20460;-73
2022/02/08 17:52:05;;;;;;;5.63;2.27;;;11.10;99.90;;;;;;5043102;28;20455;-73
2022/02/08 17:54:30;;;;;;;4.53;2.17;;;11.00;99.90;;;;;;5043239;28;20926;-74
2022/02/08 17:56:57;;;;;;;3.63;1.90;;;11.10;99.90;;;;;;5043022;28;21045;-73
2022/02/08 17:59:26;;;;;;;4.30;3.00;;;11.20;99.90;;;;;;5043299;28;20179;-72
2022/02/08 18:01:52;;;;;;;3.63;2.03;;;11.30;99.90;;;;;;5043171;28;20450;-75
2022/02/08 18:04:19;;;;;;;4.07;2.20;;;11.40;99.90;;;;;;5025312;28;20705;-74
2022/02/08 18:06:45;;;;;;;5.83;3.27;;;11.30;99.90;;;;;;5025279;28;20464;-74
2022/02/08 18:09:12;;;;;;;2.77;2.10;;;11.10;99.90;;;;;;5043234;28;20463;-75
2022/02/08 18:11:40;;;;;;;5.00;2.13;;;10.90;99.90;;;;;;5042852;28;20172;-74
2022/02/08 18:14:09;;;;;;;5.93;4.17;;;10.90;99.90;;;;;;5043066;28;20418;-72
2022/02/08 18:16:36;;;;;;;4.53;2.80;;;11.00;99.90;;;;;;5042553;28;20463;-73
2022/02/08 18:19:11;;;;;;;5.03;2.40;;;10.90;99.90;;;;;;5043297;28;20503;-74
2022/02/08 18:21:45;;;;;;;4.10;2.93;;;10.90;99.90;;;;;;5043045;28;20412;-75
2022/02/08 18:24:30;;;;;;;7.43;3.03;;;10.80;99.90;;;;;;5043394;28;20909;-74
2022/02/08 19:08:03;;;;;;;13.90;9.80;;;10.90;99.90;;;;;;5046819;28;20437;-72
2022/02/08 19:18:36;;;;;;;7.43;5.43;;;10.90;99.90;;;;;;5046777;28;20491;-72
2022/02/08 19:23:32;;;;;;;6.37;4.00;;;11.00;99.90;;;;;;5047481;28;20409;-73
2022/02/08 19:25:58;;;;;;;12.57;6.93;;;11.10;99.90;;;;;;5046974;28;20432;-71
2022/02/08 19:28:24;;;;;;;5.00;3.30;;;11.00;99.90;;;;;;5047137;28;20420;-73
2022/02/08 19:30:49;;;;;;;10.50;3.87;;;10.80;99.90;;;;;;5046756;28;21235;-71
2022/02/08 19:33:15;;;;;;;9.13;3.73;;;10.70;99.90;;;;;;5046754;28;20189;-72
2022/02/08 19:35:43;;;;;;;4.80;2.67;;;10.60;99.90;;;;;;5046599;28;20212;-71
2022/02/08 19:38:11;;;;;;;8.40;4.47;;;10.70;99.90;;;;;;5046603;28;20271;-72
2022/02/08 19:40:46;;;;;;;7.80;5.17;;;10.90;99.90;;;;;;5055577;28;20432;-73
2022/02/08 19:43:11;;;;;;;6.30;2.40;;;10.90;99.90;;;;;;5047030;28;20403;-72
2022/02/08 19:45:43;;;;;;;8.70;3.70;;;10.80;99.90;;;;;;5047199;28;20432;-71
2022/02/08 19:48:09;;;;;;;5.80;3.50;;;10.70;99.90;;;;;;5028823;28;20272;-70
2022/02/08 19:50:36;;;;;;;4.73;3.80;;;10.60;99.90;;;;;;5046802;28;20905;-72
2022/02/08 19:53:07;;;;;;;3.40;2.93;;;10.70;99.90;;;;;;5047011;28;20420;-70
2022/02/08 19:58:09;;;;;;;3.93;2.83;;;10.60;99.90;;;;;;5046822;28;20462;-71
2022/02/08 20:00:36;;;;;;;3.33;2.93;;;10.50;99.90;;;;;;5046567;28;21036;-71
2022/02/08 20:03:04;;;;;;;6.30;3.07;;;10.60;99.90;;;;;;5046499;28;20415;-72
2022/02/08 20:05:32;;;;;;;6.10;3.67;;;10.60;99.90;;;;;;5028500;28;20443;-72
2022/02/08 20:07:59;;;;;;;4.00;2.70;;;10.70;99.90;;;;;;5027496;28;20422;-72
2022/02/08 20:10:26;;;;;;;6.67;3.80;;;10.70;99.90;;;;;;5045132;28;20425;-71
2022/02/08 20:12:54;;;;;;;4.33;3.00;;;10.80;99.90;;;;;;5045113;28;20506;-70
2022/02/08 20:15:20;;;;;;;5.60;3.70;;;10.80;99.90;;;;;;5046253;28;20522;-71
2022/02/08 20:17:50;;;;;;;7.13;3.47;;;10.80;99.90;;;;;;5045784;28;20832;-70
2022/02/08 20:20:17;;;;;;;4.57;2.77;;;10.70;99.90;;;;;;5045188;28;20634;-70
2022/02/08 20:22:51;;;;;;;7.73;3.10;;;10.80;99.90;;;;;;5047045;28;20409;-70
2022/02/08 20:25:19;;;;;;;5.93;3.57;;;10.60;99.90;;;;;;5046207;28;20444;-70
2022/02/08 20:27:54;;;;;;;5.53;3.07;;;10.30;99.90;;;;;;5046170;28;20420;-72
2022/02/08 20:30:25;;;;;;;8.93;4.00;;;10.30;99.90;;;;;;5047063;28;21466;-73
2022/02/08 20:32:52;;;;;;;10.10;5.80;;;10.30;99.90;;;;;;5046986;28;20414;-73
2022/02/08 20:35:20;;;;;;;9.40;5.63;;;10.40;99.90;;;;;;5027663;28;20468;-72
2022/02/08 20:37:47;;;;;;;8.70;4.13;;;10.50;99.90;;;;;;5045627;28;20448;-74
2022/02/08 20:40:13;;;;;;;6.03;3.50;;;10.60;99.90;;;;;;5045070;28;20405;-73
2022/02/08 20:42:39;;;;;;;9.27;3.00;;;10.70;99.90;;;;;;5027252;28;20416;-71
2022/02/08 20:45:06;;;;;;;6.10;3.67;;;10.70;99.90;;;;;;5026816;28;20932;-73
2022/02/08 20:47:32;;;;;;;4.60;3.43;;;10.40;99.90;;;;;;5044671;28;20483;-73
2022/02/08 20:50:09;;;;;;;4.90;3.73;;;10.30;99.90;;;;;;5044964;28;20496;-73
2022/02/08 20:52:39;;;;;;;8.37;4.60;;;10.40;99.90;;;;;;5043649;28;20445;-75